NCAR-RAP Real-Time Weather Data

Output produced by METARs form (17 September 2019  16:13 UTC)
found at http://weather.rap.ucar.edu/surface/
 
KDEN 171553Z 22010KT 10SM FEW090 SCT150 BKN220 24/03 A2998 RMK AO2 SLP071 T02390033
KDEN 171453Z 23008KT 10SM FEW090 SCT150 BKN220 21/04 A2997 RMK AO2 SLP070 T02110044 51006
KDEN 171353Z 21010KT 10SM FEW100 FEW150 BKN220 21/04 A2996 RMK AO2 SLP066 T02060039
KDEN 171253Z 21011KT 10SM FEW090 FEW150 BKN220 18/04 A2996 RMK AO2 SLP064 T01830044
KDEN 171153Z 22010KT 10SM BKN220 19/05 A2995 RMK AO2 SLP053 T01890050 10194 20172 53003
KDEN 171053Z 22009KT 10SM BKN220 18/06 A2994 RMK AO2 SLP049 T01830061
KDEN 170953Z 21010KT 10SM FEW160 BKN220 18/07 A2994 RMK AO2 SLP050 MULT ACSL DSNT SW-W T01780067
KDEN 170853Z 23008KT 10SM SCT220 18/07 A2994 RMK AO2 SLP049 T01780072 56000
KDEN 170753Z 22010KT 10SM FEW220 18/08 A2994 RMK AO2 SLP050 T01830078
KDEN 170653Z 21011KT 10SM FEW180 SCT220 19/09 A2993 RMK AO2 SLP047 T01890089 403170161
KDEN 170553Z 21011KT 10SM SCT220 19/09 A2994 RMK AO2 SLP051 T01940089 10294 20194 58004
KDEN 170453Z 24011KT 10SM FEW220 20/08 A2995 RMK AO2 SLP058 T02000083
KDEN 170353Z 17010KT 10SM FEW120 SCT220 20/07 A2996 RMK AO2 SLP061 T02000072
KDEN 170253Z 16010KT 10SM SCT120 BKN220 22/07 A2995 RMK AO2 PK WND 17027/0155 SLP062 T02220067 50005
KDEN 170053Z 10007KT 10SM FEW080 SCT120 BKN220 26/01 A2994 RMK AO2 LTG DSNT S SLP056 OCNL LTGICCG DSNT S CB DSNT S MOV E T02560011
KDEN 162353Z 10010G17KT 10SM SCT120 BKN220 29/00 A2993 RMK AO2 SLP051 T02940000 10317 20278 56006
KDEN 162253Z 07010KT 10SM SCT120 BKN220 30/M01 A2994 RMK AO2 SLP052 T03001011
KDEN 162153Z 01005KT 10SM SCT120 BKN220 31/M02 A2995 RMK AO2 SLP052 T03111017
KDEN 162053Z 12006KT 10SM FEW120 FEW150 SCT220 31/M02 A2996 RMK AO2 SLP057 T03061022 58016